Time;durP1;ratioP1;P1;durP2;ratioP2;P2;SDS_P1;SDS_P2;PMS_P1;PMS_P2;Temp;Humidity;BMP_temperature;BMP_pressure;BME280_temperature;BME280_humidity;BME280_pressure;Samples;Min_cycle;Max_cycle;Signal;HPM_P1;HPM_P2
2021/06/13 00:00:18;;;;;;;86.68;7.75;;;;;;;16.23;84.35;100349.22;5092196;28;20059;-80
2021/06/13 00:06:05;;;;;;;19.35;7.93;;;;;;;16.12;84.95;100330.84;5092261;28;20051;-81
2021/06/13 00:08:31;;;;;;;24.48;8.45;;;;;;;16.29;84.60;100359.72;5091896;28;20040;-81
2021/06/13 00:10:58;;;;;;;19.33;8.15;;;;;;;16.37;84.55;100369.38;5090594;28;20116;-81
2021/06/13 00:13:25;;;;;;;35.47;8.35;;;;;;;15.89;84.96;100301.97;5090526;28;20126;-79
2021/06/13 00:15:52;;;;;;;31.30;7.88;;;;;;;16.18;85.20;100356.13;5090894;28;20514;-81
2021/06/13 00:18:18;;;;;;;31.48;8.48;;;;;;;16.11;85.37;100364.72;5090584;28;20032;-81
2021/06/13 00:20:44;;;;;;;22.50;8.32;;;;;;;16.06;85.71;100367.25;5090646;28;20077;-79
2021/06/13 00:23:09;;;;;;;15.27;8.07;;;;;;;15.69;85.71;100305.13;5090826;28;20460;-78
2021/06/13 00:28:57;;;;;;;10.57;6.95;;;;;;;15.68;85.78;100305.13;5091673;28;20090;-79
2021/06/13 00:31:22;;;;;;;9.32;6.75;;;;;;;15.94;85.78;100347.16;5090655;28;20024;-80
2021/06/13 00:33:48;;;;;;;9.70;6.68;;;;;;;15.77;86.09;100341.66;5090529;28;20040;-80
2021/06/13 00:36:14;;;;;;;9.77;6.25;;;;;;;15.88;86.09;100349.66;5090323;28;20027;-81
2021/06/13 00:38:39;;;;;;;12.32;6.50;;;;;;;15.83;85.58;100326.16;5091689;28;20028;-80
2021/06/13 00:41:08;;;;;;;10.63;6.40;;;;;;;15.92;85.34;100348.84;5091613;28;20032;-81
2021/06/13 00:43:33;;;;;;;14.15;6.30;;;;;;;15.78;85.39;100319.13;5090492;28;20059;-78
2021/06/13 00:48:43;;;;;;;12.60;6.78;;;;;;;15.83;86.00;100343.53;5091403;28;20483;-80
2021/06/13 00:51:09;;;;;;;9.38;6.40;;;;;;;15.59;86.48;100318.88;5090611;28;20020;-81
2021/06/13 00:53:35;;;;;;;9.55;5.97;;;;;;;15.80;86.46;100335.63;5090472;28;20497;-80
2021/06/13 00:56:01;;;;;;;15.07;6.68;;;;;;;15.36;86.49;100275.22;5090987;28;20479;-81
2021/06/13 00:58:27;;;;;;;10.60;6.78;;;;;;;15.72;86.53;100335.53;5091336;28;20097;-82
2021/06/13 01:00:52;;;;;;;12.88;6.95;;;;;;;15.42;86.11;100269.22;5090126;28;20052;-81
2021/06/13 01:03:55;;;;;;;13.10;6.07;;;;;;;15.76;85.82;100333.84;5090105;28;20514;-79
2021/06/13 01:06:34;;;;;;;17.98;6.80;;;;;;;15.46;85.97;100289.19;5090284;28;20027;-81
2021/06/13 01:12:39;;;;;;;12.32;6.05;;;;;;;15.65;85.61;100328.50;5091667;28;20464;-81
2021/06/13 01:15:12;;;;;;;13.63;6.35;;;;;;;15.56;85.51;100331.84;5083288;28;20032;-80
2021/06/13 01:17:48;;;;;;;12.75;6.38;;;;;;;15.59;85.68;100331.91;5077439;28;20028;-79
2021/06/13 01:20:19;;;;;;;15.30;6.38;;;;;;;15.53;85.73;100327.47;5073992;28;20090;-80
2021/06/13 01:23:17;;;;;;;11.38;6.65;;;;;;;15.45;85.34;100320.41;5070830;28;20028;-79
2021/06/13 01:26:16;;;;;;;12.95;6.05;;;;;;;15.52;85.47;100311.84;5008739;28;20037;-80
2021/06/13 01:28:58;;;;;;;14.77;7.68;;;;;;;15.63;84.70;100310.25;5008988;28;20038;-80
2021/06/13 01:31:32;;;;;;;12.65;6.53;;;;;;;15.56;84.72;100310.16;5011322;28;20168;-80
2021/06/13 01:34:00;;;;;;;18.65;6.97;;;;;;;15.28;84.79;100279.41;5012539;28;20036;-78
2021/06/13 01:36:27;;;;;;;11.63;6.05;;;;;;;15.43;84.97;100320.38;4992731;28;20133;-81
2021/06/13 01:38:54;;;;;;;14.40;6.10;;;;;;;15.09;85.14;100252.28;4992984;28;20077;-79
2021/06/13 01:41:25;;;;;;;13.25;6.50;;;;;;;15.37;84.81;100313.34;4976351;28;20045;-80
2021/06/13 01:43:56;;;;;;;13.48;6.72;;;;;;;15.10;84.72;100255.75;4990275;28;20498;-81
2021/06/13 01:46:41;;;;;;;12.50;6.40;;;;;;;15.57;84.57;100330.13;4992769;28;20129;-86
2021/06/13 01:49:07;;;;;;;17.08;6.95;;;;;;;15.33;84.49;100311.56;4991718;28;20080;-80
2021/06/13 01:51:33;;;;;;;16.20;7.35;;;;;;;15.22;84.48;100307.94;4976541;28;20035;-85
2021/06/13 01:54:00;;;;;;;16.02;7.28;;;;;;;15.37;84.36;100322.91;4976409;28;20030;-84
2021/06/13 01:59:30;;;;;;;15.93;6.85;;;;;;;14.89;83.89;100236.34;4992895;28;20180;-81
2021/06/13 02:01:58;;;;;;;15.48;6.97;;;;;;;15.35;84.06;100328.09;5010536;28;20047;-78
2021/06/13 02:04:26;;;;;;;12.70;6.70;;;;;;;14.84;84.43;100238.91;5052076;28;20039;-81
2021/06/13 02:06:58;;;;;;;12.32;6.45;;;;;;;15.26;84.28;100327.06;5043122;28;20432;-84
2021/06/13 02:12:29;;;;;;;13.32;6.63;;;;;;;14.88;85.63;100312.59;5073870;28;20044;-80
2021/06/13 02:14:55;;;;;;;10.77;6.50;;;;;;;14.32;86.56;100236.28;5093457;28;20028;-77
2021/06/13 02:17:21;;;;;;;17.08;6.70;;;;;;;14.76;86.86;100297.66;5094615;28;20111;-79
2021/06/13 02:19:48;;;;;;;10.98;6.35;;;;;;;14.84;86.99;100322.06;5094194;28;20213;-80
2021/06/13 02:22:18;;;;;;;11.73;6.60;;;;;;;14.90;86.70;100326.47;5093253;28;20040;-78
2021/06/13 02:24:46;;;;;;;13.55;6.47;;;;;;;14.88;86.11;100312.59;5081347;28;20032;-81
2021/06/13 02:27:20;;;;;;;11.70;5.55;;;;;;;15.03;85.04;100323.25;5083132;28;20024;-79
2021/06/13 02:29:46;;;;;;;10.43;5.80;;;;;;;14.97;85.16;100327.47;5082358;28;20033;-78
2021/06/13 02:32:14;;;;;;;12.90;6.20;;;;;;;14.95;85.50;100313.56;5061608;28;20036;-80
2021/06/13 02:34:45;;;;;;;10.48;5.75;;;;;;;14.88;85.15;100315.22;5062604;28;20036;-77
2021/06/13 02:37:11;;;;;;;10.25;5.18;;;;;;;14.87;85.08;100308.25;5060984;28;20047;-77
2021/06/13 02:39:37;;;;;;;11.45;5.82;;;;;;;14.95;85.00;100318.78;5059582;28;20063;-78
2021/06/13 02:42:03;;;;;;;10.30;5.20;;;;;;;14.72;85.21;100283.75;5058609;28;20511;-79
2021/06/13 02:44:29;;;;;;;13.30;5.88;;;;;;;14.62;85.29;100279.22;5062106;28;20541;-82
2021/06/13 02:46:54;;;;;;;8.57;5.78;;;;;;;14.68;85.90;100310.53;5060349;28;20056;-79
2021/06/13 02:49:20;;;;;;;11.18;5.88;;;;;;;14.70;86.64;100313.16;5070425;28;20063;-78
2021/06/13 02:52:01;;;;;;;9.98;5.53;;;;;;;14.50;87.07;100291.97;5059362;28;20075;-78
2021/06/13 02:54:30;;;;;;;11.32;6.07;;;;;;;14.35;87.50;100283.06;5068643;28;20033;-80
2021/06/13 02:57:15;;;;;;;15.90;6.53;;;;;;;14.50;87.01;100304.97;5054534;28;20032;-79
2021/06/13 02:59:41;;;;;;;12.52;6.47;;;;;;;14.60;86.80;100322.47;5071321;28;20045;-80
2021/06/13 03:02:12;;;;;;;11.15;5.43;;;;;;;14.62;86.61;100314.72;5050098;28;20039;-82
2021/06/13 03:04:58;;;;;;;13.43;6.20;;;;;;;14.59;86.29;100310.31;5073420;28;20028;-80
2021/06/13 03:07:24;;;;;;;10.05;5.47;;;;;;;14.51;86.37;100306.72;5072220;28;20033;-79
2021/06/13 03:09:51;;;;;;;8.90;5.63;;;;;;;14.46;86.65;100297.97;5071963;28;20033;-80
2021/06/13 03:12:21;;;;;;;9.85;5.78;;;;;;;14.45;86.59;100291.03;5073278;28;20036;-80
2021/06/13 03:14:54;;;;;;;14.52;5.60;;;;;;;14.53;86.66;100297.25;5073063;28;20103;-78
2021/06/13 03:17:20;;;;;;;11.02;5.75;;;;;;;14.02;88.14;100203.72;5073066;28;20028;-81
2021/06/13 03:19:47;;;;;;;12.38;5.93;;;;;;;14.59;87.78;100294.72;5083609;28;20032;-80
2021/06/13 03:22:14;;;;;;;7.47;5.68;;;;;;;14.48;88.06;100270.28;5081849;28;20027;-81
2021/06/13 03:24:42;;;;;;;8.25;5.50;;;;;;;14.62;87.61;100297.41;5080887;28;20148;-80
2021/06/13 03:27:09;;;;;;;13.57;5.20;;;;;;;14.47;87.44;100305.78;5081890;28;20031;-81
2021/06/13 03:29:40;;;;;;;15.23;5.50;;;;;;;14.48;87.85;100299.75;5081668;28;20050;-79
2021/06/13 03:32:08;;;;;;;7.32;5.35;;;;;;;14.42;88.11;100301.34;5079840;28;20024;-81
2021/06/13 03:34:36;;;;;;;12.25;5.25;;;;;;;14.42;88.54;100297.03;5082845;28;20398;-83
2021/06/13 03:37:21;;;;;;;10.85;5.63;;;;;;;14.44;88.65;100294.47;5080795;28;20025;-84
2021/06/13 03:39:48;;;;;;;8.23;5.25;;;;;;;14.54;88.68;100301.56;5081251;28;20029;-81
2021/06/13 03:42:15;;;;;;;12.68;5.35;;;;;;;14.19;89.29;100262.84;5081076;28;20475;-81
2021/06/13 03:44:42;;;;;;;8.05;5.93;;;;;;;14.32;90.24;100298.59;5081346;28;20024;-81
2021/06/13 03:47:08;;;;;;;9.82;5.85;;;;;;;14.35;90.61;100292.56;5082598;28;20043;-80
2021/06/13 03:49:35;;;;;;;13.13;5.13;;;;;;;14.47;90.61;100300.59;5079200;28;20098;-80
2021/06/13 03:52:01;;;;;;;8.95;5.35;;;;;;;14.49;90.75;100291.13;5080918;28;20046;-80
2021/06/13 03:57:30;;;;;;;8.07;5.15;;;;;;;14.50;91.08;100260.81;5082704;28;20133;-81
2021/06/13 03:59:56;;;;;;;11.40;5.97;;;;;;;14.71;90.97;100269.00;5079450;28;20031;-81
2021/06/13 04:03:01;;;;;;;10.48;6.20;;;;;;;14.78;91.32;100288.19;5080376;28;20031;-83
2021/06/13 04:05:27;;;;;;;10.88;6.70;;;;;;;14.76;91.92;100268.22;5086068;28;20020;-77
2021/06/13 04:07:53;;;;;;;10.30;5.57;;;;;;;14.98;92.19;100283.31;5091735;28;20064;-77
2021/06/13 04:10:19;;;;;;;10.18;6.28;;;;;;;14.96;91.88;100285.00;5091752;28;20051;-75
2021/06/13 04:12:47;;;;;;;13.18;6.70;;;;;;;14.97;92.79;100293.69;5091632;28;20023;-74
2021/06/13 04:15:13;;;;;;;9.35;6.45;;;;;;;15.07;93.28;100295.56;5091794;28;20032;-76
2021/06/13 04:17:41;;;;;;;11.98;6.60;;;;;;;15.15;93.15;100295.69;5090704;28;20074;-76
2021/06/13 04:20:08;;;;;;;9.52;7.32;;;;;;;15.14;92.99;100279.22;5090530;28;20449;-78
2021/06/13 04:22:54;;;;;;;10.43;6.88;;;;;;;15.40;92.57;100296.06;5091902;28;20081;-74
2021/06/13 04:25:20;;;;;;;8.75;7.07;;;;;;;15.46;92.61;100297.00;5091466;28;20470;-75
2021/06/13 04:27:47;;;;;;;8.98;7.30;;;;;;;15.27;92.50;100262.06;5091558;28;20035;-78
2021/06/13 04:30:13;;;;;;;9.57;7.30;;;;;;;15.49;93.25;100297.06;5089466;28;20036;-74
2021/06/13 04:32:57;;;;;;;9.65;7.38;;;;;;;15.12;93.01;100228.06;5072665;28;20421;-75
2021/06/13 04:35:22;;;;;;;11.88;8.07;;;;;;;15.52;93.68;100275.41;5078937;28;20024;-74
2021/06/13 04:37:48;;;;;;;10.98;7.70;;;;;;;15.65;93.39;100300.75;5091627;28;20555;-77
2021/06/13 04:40:13;;;;;;;10.57;7.85;;;;;;;15.60;92.79;100289.41;5091540;28;20020;-74
2021/06/13 04:42:39;;;;;;;13.07;7.50;;;;;;;15.17;92.98;100215.97;5091428;28;20028;-74
2021/06/13 04:45:09;;;;;;;14.98;8.40;;;;;;;15.82;93.23;100310.53;5089393;28;20426;-74
2021/06/13 04:47:37;;;;;;;11.27;8.80;;;;;;;15.64;92.67;100278.19;5091627;28;20032;-75
2021/06/13 04:50:05;;;;;;;9.38;7.95;;;;;;;15.81;92.64;100299.22;5091279;28;20044;-75
2021/06/13 04:52:32;;;;;;;10.18;8.50;;;;;;;15.85;92.86;100289.78;5090152;28;20020;-74
2021/06/13 04:55:17;;;;;;;11.52;8.63;;;;;;;15.91;93.00;100289.81;5089080;28;20056;-74
2021/06/13 04:57:42;;;;;;;9.55;7.68;;;;;;;15.92;92.79;100294.16;5078590;28;20024;-74
2021/06/13 05:00:08;;;;;;;16.25;8.75;;;;;;;15.76;93.67;100256.63;5090733;28;20035;-72
2021/06/13 05:02:34;;;;;;;8.93;8.02;;;;;;;16.07;92.82;100296.09;5091112;28;20103;-73
2021/06/13 05:05:00;;;;;;;12.18;8.85;;;;;;;15.71;93.29;100234.03;5092482;28;20046;-75
2021/06/13 05:07:25;;;;;;;11.45;8.88;;;;;;;15.93;93.65;100251.66;5094011;28;20470;-76
2021/06/13 05:09:51;;;;;;;11.48;8.38;;;;;;;15.65;92.97;100186.25;5094676;28;20106;-73
2021/06/13 05:12:17;;;;;;;12.27;9.13;;;;;;;16.39;93.40;100285.16;5090298;28;20020;-78
2021/06/13 05:14:42;;;;;;;13.65;9.63;;;;;;;16.44;93.04;100277.38;5093495;28;20441;-76
2021/06/13 05:17:07;;;;;;;13.82;9.25;;;;;;;16.58;93.00;100285.34;5093147;28;20051;-74
2021/06/13 05:19:34;;;;;;;10.95;8.98;;;;;;;16.58;93.51;100273.16;5090583;28;20024;-74
2021/06/13 05:22:03;;;;;;;12.43;8.90;;;;;;;16.63;93.49;100274.06;5091962;28;20066;-74
2021/06/13 05:24:28;;;;;;;10.25;9.18;;;;;;;16.45;93.69;100240.06;5090764;28;20029;-75
2021/06/13 05:29:37;;;;;;;11.02;8.05;;;;;;;16.85;93.11;100268.16;5088131;28;20047;-74
2021/06/13 05:32:03;;;;;;;11.98;8.40;;;;;;;16.84;93.43;100253.41;5086717;28;20028;-77
2021/06/13 05:34:30;;;;;;;9.35;8.32;;;;;;;17.07;93.23;100277.06;5089596;28;20020;-74
2021/06/13 05:36:55;;;;;;;10.52;8.18;;;;;;;17.08;92.98;100261.41;5092761;28;20107;-74
2021/06/13 05:39:20;;;;;;;8.40;7.55;;;;;;;17.21;92.22;100280.66;5091913;28;20493;-79
2021/06/13 05:41:46;;;;;;;9.02;8.02;;;;;;;17.30;93.72;100285.06;5092406;28;20478;-77
2021/06/13 05:44:11;;;;;;;10.68;8.00;;;;;;;17.43;93.12;100278.16;5093663;28;20499;-73
2021/06/13 05:46:37;;;;;;;9.73;8.05;;;;;;;17.56;92.46;100284.34;5092271;28;20032;-73
2021/06/13 05:49:21;;;;;;;10.50;6.07;;;;;;;17.27;88.41;100271.97;5089616;28;20058;-74
2021/06/13 05:51:46;;;;;;;8.85;6.22;;;;;;;17.45;89.25;100282.53;5092210;28;20028;-74
2021/06/13 05:54:12;;;;;;;12.93;6.32;;;;;;;17.25;89.96;100234.59;5094099;28;20034;-71
2021/06/13 05:56:38;;;;;;;7.85;5.38;;;;;;;17.20;87.29;100211.06;5079323;28;20028;-73
2021/06/13 05:59:03;;;;;;;12.63;6.43;;;;;;;17.69;89.01;100287.88;5076004;28;20033;-77
2021/06/13 06:01:29;;;;;;;10.52;5.55;;;;;;;17.54;88.01;100255.59;5078220;28;20457;-71
2021/06/13 06:03:54;;;;;;;9.75;5.95;;;;;;;17.73;87.53;100259.19;5075983;28;20025;-71
2021/06/13 06:06:20;;;;;;;7.28;5.40;;;;;;;17.55;86.59;100235.63;5076785;28;20081;-71
2021/06/13 06:08:45;;;;;;;6.05;4.70;;;;;;;17.84;87.51;100279.25;5077171;28;20031;-73
2021/06/13 06:14:13;;;;;;;7.95;6.03;;;;;;;18.30;85.33;100266.34;5091993;28;20039;-72
2021/06/13 06:16:38;;;;;;;7.32;5.20;;;;;;;18.48;84.67;100270.75;5093642;28;20020;-73
2021/06/13 06:19:04;;;;;;;9.63;5.13;;;;;;;18.47;84.48;100263.78;5093850;28;20092;-74
2021/06/13 06:21:30;;;;;;;9.52;5.82;;;;;;;18.41;83.61;100258.53;5094127;28;20028;-73
2021/06/13 06:23:55;;;;;;;9.43;5.47;;;;;;;18.29;83.82;100238.47;5094078;28;20047;-76
2021/06/13 06:26:21;;;;;;;6.10;4.95;;;;;;;18.27;82.66;100229.78;5093909;28;20390;-72
2021/06/13 06:28:46;;;;;;;8.23;5.00;;;;;;;18.50;83.96;100253.28;5094000;28;20028;-72
2021/06/13 06:31:12;;;;;;;7.05;5.28;;;;;;;18.66;82.41;100259.41;5093673;28;20490;-73
2021/06/13 06:33:38;;;;;;;8.07;4.90;;;;;;;18.40;82.16;100205.38;5094080;28;20368;-72
2021/06/13 06:36:04;;;;;;;12.05;5.50;;;;;;;18.73;83.25;100231.53;5093515;28;20024;-75
2021/06/13 06:38:30;;;;;;;6.80;5.18;;;;;;;18.95;84.05;100250.72;5093797;28;20060;-75
2021/06/13 06:40:58;;;;;;;9.95;5.80;;;;;;;19.12;84.58;100245.47;5093104;28;20024;-75
2021/06/13 06:43:23;;;;;;;6.55;5.28;;;;;;;18.90;80.76;100231.50;5093048;28;20471;-75
2021/06/13 06:45:49;;;;;;;8.55;5.32;;;;;;;19.01;81.95;100253.31;5093322;28;20031;-75
2021/06/13 06:48:14;;;;;;;9.77;5.60;;;;;;;19.19;84.06;100246.31;5092056;28;20044;-75
2021/06/13 06:51:17;;;;;;;7.22;5.25;;;;;;;19.31;79.07;100248.91;5093669;28;20085;-76
2021/06/13 06:53:42;;;;;;;9.93;5.00;;;;;;;19.47;80.97;100244.50;5078947;28;20050;-75
2021/06/13 06:56:08;;;;;;;8.85;5.10;;;;;;;19.46;79.12;100219.19;5093826;28;20368;-74
2021/06/13 06:58:33;;;;;;;5.72;4.55;;;;;;;19.43;78.81;100200.88;5093230;28;20028;-78
2021/06/13 07:04:22;;;;;;;12.38;5.50;;;;;;;19.86;77.32;100232.16;5083464;28;20139;-73
2021/06/13 07:06:47;;;;;;;6.45;4.80;;;;;;;19.70;76.97;100175.44;5092782;28;20024;-72
2021/06/13 07:09:13;;;;;;;7.80;4.65;;;;;;;19.85;75.77;100204.22;5093294;28;20487;-72
2021/06/13 07:11:38;;;;;;;9.63;5.35;;;;;;;19.94;78.03;100210.25;5093071;28;20065;-74
2021/06/13 07:14:04;;;;;;;7.57;5.00;;;;;;;20.34;76.43;100210.88;5092619;28;20024;-73
2021/06/13 07:16:30;;;;;;;7.45;5.03;;;;;;;20.01;73.25;100149.97;5092802;28;20028;-76
2021/06/13 07:21:39;;;;;;;7.25;4.47;;;;;;;20.44;74.56;100203.81;5092881;28;20089;-75
2021/06/13 07:24:06;;;;;;;7.88;4.80;;;;;;;20.57;74.38;100203.72;5092511;28;20399;-76
2021/06/13 07:26:34;;;;;;;6.40;4.50;;;;;;;20.66;75.08;100203.63;5091336;28;20043;-74
2021/06/13 07:29:00;;;;;;;7.40;4.65;;;;;;;20.77;74.24;100196.59;5091712;28;20016;-78
2021/06/13 07:31:25;;;;;;;6.90;4.80;;;;;;;20.86;73.43;100193.00;5091590;28;20035;-76
2021/06/13 07:33:51;;;;;;;7.47;4.38;;;;;;;20.98;71.69;100195.47;5092821;28;20062;-76
2021/06/13 07:36:16;;;;;;;6.68;4.35;;;;;;;20.96;70.61;100196.38;5091325;28;20502;-74
2021/06/13 07:38:42;;;;;;;8.13;4.35;;;;;;;20.85;71.16;100175.50;5092893;28;20103;-75
2021/06/13 07:41:07;;;;;;;6.50;4.47;;;;;;;21.21;69.79;100196.13;5091941;28;20409;-77
2021/06/13 07:44:10;;;;;;;5.85;4.63;;;;;;;21.37;72.92;100187.19;5092249;28;20079;-80
2021/06/13 07:46:37;;;;;;;7.80;4.22;;;;;;;21.54;70.17;100189.59;5092124;28;20398;-74
2021/06/13 07:49:03;;;;;;;6.03;4.13;;;;;;;21.70;68.34;100194.69;5092573;28;20048;-74
2021/06/13 07:51:29;;;;;;;5.28;4.07;;;;;;;21.80;68.45;100185.78;5091961;28;20020;-78
2021/06/13 07:53:54;;;;;;;10.60;4.22;;;;;;;22.02;68.47;100190.72;5090973;28;20495;-74
2021/06/13 07:56:20;;;;;;;8.00;4.38;;;;;;;22.09;66.67;100145.06;5092037;28;20161;-75
2021/06/13 07:58:45;;;;;;;5.05;3.83;;;;;;;22.42;65.21;100169.97;5092093;28;20032;-76
2021/06/13 08:01:11;;;;;;;5.28;4.30;;;;;;;22.48;67.09;100170.75;5092083;28;20028;-74
2021/06/13 08:03:40;;;;;;;5.95;4.25;;;;;;;22.33;66.45;100170.09;5092038;28;20023;-74
2021/06/13 08:06:24;;;;;;;6.13;4.18;;;;;;;22.29;64.36;100174.53;5092474;28;20119;-76
2021/06/13 08:08:50;;;;;;;6.32;4.22;;;;;;;22.03;65.51;100137.25;5091659;28;20437;-74
2021/06/13 08:11:16;;;;;;;7.50;3.85;;;;;;;22.01;64.94;100126.78;5090669;28;20031;-73
2021/06/13 08:13:41;;;;;;;6.05;3.80;;;;;;;22.52;62.93;100175.06;5091733;28;20402;-74
2021/06/13 08:16:07;;;;;;;7.68;3.85;;;;;;;22.58;65.02;100182.84;5091758;28;20501;-75
2021/06/13 08:18:32;;;;;;;6.68;3.58;;;;;;;22.44;61.84;100168.19;5091814;28;20455;-75
2021/06/13 08:20:58;;;;;;;5.82;3.97;;;;;;;22.57;63.29;100168.84;5091556;28;20445;-74
2021/06/13 08:23:24;;;;;;;4.80;3.60;;;;;;;22.69;63.59;100149.34;5091717;28;20099;-76
2021/06/13 08:25:50;;;;;;;6.50;3.85;;;;;;;22.89;62.33;100169.13;5091738;28;20055;-75
2021/06/13 08:28:16;;;;;;;3.60;3.20;;;;;;;22.75;59.80;100103.59;5091634;28;20471;-73
2021/06/13 08:31:00;;;;;;;10.63;4.25;;;;;;;23.15;61.06;100163.38;5092035;28;20024;-74
2021/06/13 08:33:25;;;;;;;8.18;3.53;;;;;;;23.22;58.45;100151.00;5078763;28;20449;-76
2021/06/13 08:35:51;;;;;;;7.50;3.50;;;;;;;23.35;58.53;100156.88;5091379;28;20020;-74
2021/06/13 08:38:18;;;;;;;7.43;3.88;;;;;;;23.21;61.34;100149.25;5091421;28;20032;-74
2021/06/13 08:40:44;;;;;;;5.68;3.42;;;;;;;23.23;61.71;100156.22;5091104;28;20085;-74
2021/06/13 08:43:09;;;;;;;5.80;3.67;;;;;;;23.14;59.63;100137.97;5091608;28;20024;-75
2021/06/13 08:45:36;;;;;;;8.35;4.03;;;;;;;23.34;62.24;100131.41;5091210;28;20024;-76
2021/06/13 08:48:04;;;;;;;10.77;4.00;;;;;;;23.54;59.68;100136.25;5090893;28;20063;-74
2021/06/13 08:50:31;;;;;;;4.25;3.10;;;;;;;23.43;57.76;100137.34;5090052;28;20050;-75
2021/06/13 08:52:57;;;;;;;7.47;3.88;;;;;;;23.29;59.80;100117.47;5091541;28;20162;-76
2021/06/13 08:55:23;;;;;;;8.10;3.72;;;;;;;23.39;59.55;100108.47;5091392;28;20468;-82
2021/06/13 08:58:22;;;;;;;10.50;4.07;;;;;;;23.63;59.82;100122.00;5091106;28;20028;-75
2021/06/13 09:00:50;;;;;;;;;;;;;;;23.57;57.62;100121.25;5080879;28;20028;-76
2021/06/13 09:03:18;;;;;;;4.78;3.28;;;;;;;23.71;55.74;100105.13;5091507;28;19907;-76
2021/06/13 09:08:48;;;;;;;5.70;3.03;;;;;;;23.94;54.77;100081.78;5085721;28;20078;-77
2021/06/13 09:11:33;;;;;;;5.30;3.70;;;;;;;24.05;56.67;100099.06;5087492;28;20028;-75
2021/06/13 09:14:13;;;;;;;6.28;3.38;;;;;;;23.97;54.97;100095.75;5087313;28;20042;-80
2021/06/13 09:20:09;;;;;;;8.50;3.63;;;;;;;24.27;55.60;100080.06;5087686;28;20532;-78
2021/06/13 09:22:35;;;;;;;6.63;3.90;;;;;;;24.40;54.98;100054.22;5087288;28;20055;-76
2021/06/13 09:25:40;;;;;;;4.90;3.40;;;;;;;24.87;52.52;100069.66;5088707;28;20113;-78
2021/06/13 09:28:17;;;;;;;5.57;2.92;;;;;;;25.02;49.60;100066.59;5084934;28;20093;-73
2021/06/13 09:30:46;;;;;;;5.75;3.30;;;;;;;25.25;50.35;100064.19;5088113;28;20053;-72
2021/06/13 09:33:16;;;;;;;5.25;3.42;;;;;;;24.93;50.47;100011.41;5087665;28;20028;-74
2021/06/13 09:35:42;;;;;;;;;;;;;;;25.18;50.87;100069.66;5088681;28;20028;-76
2021/06/13 09:38:27;;;;;;;4.70;3.00;;;;;;;25.39;49.20;100059.34;5087260;28;19919;-75
2021/06/13 09:41:07;;;;;;;7.00;3.38;;;;;;;25.62;49.19;100058.63;5089140;28;20024;-74
2021/06/13 09:43:40;;;;;;;6.90;3.60;;;;;;;25.70;49.03;100044.31;5085682;28;20063;-75
2021/06/13 09:46:10;;;;;;;3.40;2.55;;;;;;;25.82;46.57;100033.31;5087505;28;20463;-74
2021/06/13 09:48:38;;;;;;;3.20;2.45;;;;;;;25.96;46.12;100044.28;5083752;28;20500;-75
2021/06/13 09:51:10;;;;;;;5.10;3.15;;;;;;;25.88;47.09;100037.53;5088241;28;20552;-74
2021/06/13 09:53:47;;;;;;;4.68;2.90;;;;;;;25.99;46.84;100033.63;5091170;28;20020;-73
2021/06/13 09:56:22;;;;;;;4.03;2.70;;;;;;;26.13;43.74;100017.31;5090273;28;20406;-73
2021/06/13 09:58:58;;;;;;;3.58;2.78;;;;;;;26.31;46.38;100025.50;5092873;28;20024;-74
2021/06/13 10:01:35;;;;;;;7.45;3.40;;;;;;;26.41;47.62;100036.63;5090910;28;20035;-76
2021/06/13 10:04:02;;;;;;;5.28;2.85;;;;;;;26.38;46.79;100015.56;5090251;28;20059;-76
2021/06/13 10:06:32;;;;;;;4.25;2.92;;;;;;;26.60;45.43;100003.25;5090699;28;20120;-73
2021/06/13 10:09:35;;;;;;;7.40;3.63;;;;;;;26.90;47.52;100012.81;5092268;28;20032;-75
2021/06/13 10:12:20;;;;;;;4.35;2.95;;;;;;;26.95;47.01;100011.72;5085933;28;20024;-76
2021/06/13 10:15:06;;;;;;;4.78;3.45;;;;;;;26.50;48.79;99954.22;5089415;28;20032;-75
2021/06/13 10:17:32;;;;;;;4.55;3.03;;;;;;;26.87;45.85;99976.69;5067372;28;20071;-76
2021/06/13 10:19:57;;;;;;;4.57;2.63;;;;;;;26.91;44.63;99985.41;5066768;28;20515;-78
2021/06/13 10:22:24;;;;;;;4.50;2.50;;;;;;;26.87;44.24;99979.34;5067553;28;20060;-73
2021/06/13 10:24:51;;;;;;;4.22;2.95;;;;;;;27.12;45.50;99992.50;5070235;28;20032;-76
2021/06/13 10:30:21;;;;;;;4.00;3.10;;;;;;;26.90;44.04;99942.13;5067839;28;20499;-76
2021/06/13 10:32:48;;;;;;;5.28;2.92;;;;;;;27.02;44.26;99990.28;5050758;28;20127;-77
2021/06/13 10:35:13;;;;;;;4.43;2.90;;;;;;;26.79;48.07;99990.25;5069208;28;20028;-76
2021/06/13 10:37:39;;;;;;;4.78;3.15;;;;;;;26.91;45.48;100002.13;5063841;28;20083;-74
2021/06/13 10:40:05;;;;;;;3.95;2.67;;;;;;;26.82;45.21;100001.63;5058507;28;20075;-75
2021/06/13 10:42:36;;;;;;;6.35;3.20;;;;;;;26.87;47.76;100011.13;5061025;28;20033;-74
2021/06/13 10:45:03;;;;;;;5.40;3.15;;;;;;;26.70;46.17;100016.19;5064499;28;20082;-75
2021/06/13 10:47:30;;;;;;;7.20;3.38;;;;;;;26.76;45.67;100015.97;5070418;28;20033;-75
2021/06/13 10:49:55;;;;;;;6.72;3.38;;;;;;;26.77;47.14;100023.84;5086741;28;20048;-75
2021/06/13 10:52:23;;;;;;;6.40;2.92;;;;;;;26.60;45.58;100023.59;5089886;28;20131;-74
2021/06/13 10:54:48;;;;;;;4.30;3.10;;;;;;;26.63;49.19;100045.53;5088178;28;20040;-76
2021/06/13 10:57:14;;;;;;;7.63;2.95;;;;;;;26.47;50.44;100042.56;5087485;28;20028;-77
2021/06/13 10:59:42;;;;;;;7.95;3.20;;;;;;;26.03;48.49;100052.88;5085714;28;20038;-75
2021/06/13 11:02:17;;;;;;;53.45;5.10;;;;;;;25.25;49.75;100011.34;5088906;28;20542;-73
2021/06/13 11:05:02;;;;;;;11.45;3.75;;;;;;;24.92;49.33;99993.81;5089383;28;20031;-74
2021/06/13 11:07:34;;;;;;;7.55;3.70;;;;;;;25.33;51.24;100076.25;5091423;28;20027;-75
2021/06/13 11:10:04;;;;;;;11.68;2.97;;;;;;;24.22;56.15;100034.47;5089030;28;20120;-73
2021/06/13 11:12:51;;;;;;;18.00;2.60;;;;;;;23.94;58.17;100094.94;5088854;28;20039;-75
2021/06/13 11:15:22;;;;;;;8.35;2.05;;;;;;;23.05;60.02;100085.47;5087073;28;20467;-78
2021/06/13 11:18:00;;;;;;;3.17;1.40;;;;;;;22.52;61.09;100099.66;5080267;28;20033;-75
2021/06/13 11:23:07;;;;;;;5.25;1.80;;;;;;;21.39;63.78;100014.72;5088470;28;20043;-74
2021/06/13 11:25:37;;;;;;;3.63;1.40;;;;;;;21.25;63.82;100020.16;5090035;28;20031;-76
2021/06/13 11:28:25;;;;;;;5.43;1.60;;;;;;;21.48;64.33;100089.88;5088101;28;20043;-74
2021/06/13 11:30:55;;;;;;;3.03;1.58;;;;;;;21.34;67.20;100100.56;5086782;28;20381;-76
2021/06/13 11:33:39;;;;;;;9.52;1.85;;;;;;;21.13;70.17;100097.34;5088604;28;20032;-76
2021/06/13 11:36:25;;;;;;;10.02;1.75;;;;;;;20.62;74.55;100102.25;5043939;28;20029;-74
2021/06/13 11:38:53;;;;;;;3.25;1.88;;;;;;;20.50;74.29;100091.00;5042648;28;20035;-76
2021/06/13 11:41:49;;;;;;;2.38;1.80;;;;;;;20.48;75.68;100068.31;5038941;28;20067;-73
2021/06/13 11:44:20;;;;;;;6.10;1.60;;;;;;;20.30;77.02;100069.34;4986005;28;20046;-74
2021/06/13 11:46:48;;;;;;;4.70;1.92;;;;;;;20.30;78.13;100077.22;4969938;28;20614;-75
2021/06/13 11:49:18;;;;;;;3.40;1.60;;;;;;;20.30;76.88;100075.47;4988371;28;20050;-78
2021/06/13 11:51:53;;;;;;;4.07;2.00;;;;;;;20.37;78.13;100078.91;4989659;28;20235;-76
2021/06/13 11:54:40;;;;;;;4.38;1.50;;;;;;;20.27;80.36;100079.88;4989440;28;20034;-76
2021/06/13 11:57:12;;;;;;;2.25;1.70;;;;;;;19.98;79.24;100025.97;4986123;28;20421;-75
2021/06/13 11:59:38;;;;;;;3.60;1.60;;;;;;;20.45;78.15;100081.44;4985399;28;20030;-75
2021/06/13 12:02:09;;;;;;;4.95;1.70;;;;;;;20.52;78.72;100078.75;4987273;28;20124;-74
2021/06/13 12:04:53;;;;;;;3.35;1.60;;;;;;;20.33;78.83;100025.63;4987279;28;20038;-75
2021/06/13 12:07:21;;;;;;;3.63;1.90;;;;;;;20.46;79.48;100085.81;5001682;28;20045;-75
2021/06/13 12:09:49;;;;;;;2.50;1.70;;;;;;;20.53;81.17;100084.88;5024965;28;20040;-76
2021/06/13 12:12:19;;;;;;;2.45;1.83;;;;;;;20.86;79.26;100088.06;5020621;28;20095;-75
2021/06/13 12:14:46;;;;;;;2.55;2.08;;;;;;;20.87;78.21;100067.91;5028398;28;20046;-74
2021/06/13 12:17:23;;;;;;;5.90;2.25;;;;;;;21.24;79.67;100083.22;5028929;28;20061;-75
2021/06/13 12:20:01;;;;;;;4.40;2.10;;;;;;;21.48;77.01;100072.38;5029118;28;20041;-76